Aérodrome :
LOGIN :

S'inscrire | Disclaimer

   EN    FR    IT 

 










Légende :    VFR   VFR Marginal   IFR   IFR Intensif   IFR Très Intensif
Visi : 
Plafond : 
>= 8 km
>= 3000ft
5 à 8 km
1000 à 3000 ft
1500m à 5 km
500 à 1000 ft
800 à 1500m
200 à 500 ft
< 800m
< 200 ft
Symboles :   Orages  Brouillard  Fortes neiges  Fortes précipitations  Vent > 20 kt
SIGMETs :   Divers  Orages  Givrage  Turbulence  Onde Orograph.  Cendres Volcan.







- Altitude de l'aérodrome : 416 ft
- Code IATA : OVD


LEAS - Asturias

DERNIER METAR :
  • 160500Z 00000KT 9999 FEW022 SCT067 11/09 Q1014 NOSIG

METARs EXPIRÉS :
  • 160430Z 24004KT 210V330 9999 BKN070 12/10 Q1014 NOSIG
  • 160400Z 23004KT 9999 BKN070 12/10 Q1014 NOSIG
  • 160330Z AUTO 23005KT 9999 3300 OVC070 12/10 Q1014
  • 160300Z AUTO 23005KT 9999 3400 OVC070 12/10 Q1014
  • 160230Z AUTO 28003KT 200V340 9999 3300 FEW070 11/09 Q1014

TAF TAF LEAS
Valide du 16 à 03h jusqu'au 17 à 03h UTC


160200Z 1603/1703 23005KT 9999 FEW030 TX19/1614Z TN10/1603Z
TEMPO 1612/1618 06010KT
PROB40
TEMPO 1618/1703 3000 BR BKN010
Pas de NOTAMs connus pour ce terrain.



MET'MAP, la Météo Aéronautique d'un coup d'oeil ! - Copyright ORBIFLY Décembre 2007 - Disclaimer

ORBIFLY MET'MAP TEAM :

Programmation & Développement : Alexandra Zaïnal
Conception & Développement : Baudouin d'Aumeries
Co-Programmation & Développement : Marc-Olivier Méhu
Soutien technique & logistique : Manuel Goepfert

Contact : metmap@orbifly.com




SOURCES & CREDITS :

   NOAA